createdAt,value
2022-11-13T00:00:41.959Z,25.03
2022-11-13T00:03:09.934Z,30.07
2022-11-13T00:05:37.813Z,29.17
2022-11-13T00:08:07.214Z,27.67
2022-11-13T00:10:35.182Z,28.37
2022-11-13T00:13:03.087Z,29.67
2022-11-13T00:15:31.019Z,30.83
2022-11-13T00:18:01.600Z,30.97
2022-11-13T00:20:29.516Z,30.20
2022-11-13T00:22:57.463Z,30.13
2022-11-13T00:25:26.782Z,28.13
2022-11-13T00:27:54.655Z,31.97
2022-11-13T00:30:22.758Z,32.90
2022-11-13T00:32:50.746Z,29.70
2022-11-13T00:35:18.822Z,29.07
2022-11-13T00:37:46.901Z,31.77
2022-11-13T00:40:14.847Z,31.50
2022-11-13T00:42:44.150Z,30.67
2022-11-13T00:45:12.209Z,33.80
2022-11-13T00:47:40.103Z,29.20
2022-11-13T00:50:08.327Z,30.43
2022-11-13T00:52:36.280Z,31.73
2022-11-13T00:55:04.312Z,27.37
2022-11-13T00:57:32.229Z,27.10
2022-11-13T01:00:01.644Z,28.70
2022-11-13T01:02:29.767Z,28.43
2022-11-13T01:04:57.770Z,27.63
2022-11-13T01:07:25.711Z,29.00
2022-11-13T01:09:53.874Z,27.97
2022-11-13T01:12:21.905Z,30.60
2022-11-13T01:14:50.130Z,27.83
2022-11-13T01:17:19.672Z,29.57
2022-11-13T01:19:47.651Z,28.70
2022-11-13T01:22:15.710Z,28.67
2022-11-13T01:24:43.810Z,30.87
2022-11-13T01:27:13.355Z,26.37
2022-11-13T01:29:41.228Z,29.03
2022-11-13T01:32:09.192Z,28.47
2022-11-13T01:34:38.670Z,28.40
2022-11-13T01:37:06.670Z,28.13
2022-11-13T01:39:34.651Z,29.40
2022-11-13T01:42:02.715Z,33.17
2022-11-13T01:44:45.461Z,31.00
2022-11-13T01:47:13.392Z,32.27
2022-11-13T01:49:43.572Z,32.13
2022-11-13T01:52:12.876Z,31.13
2022-11-13T01:54:43.901Z,31.63
2022-11-13T01:57:12.099Z,31.10
2022-11-13T01:59:41.213Z,31.90
2022-11-13T02:02:09.419Z,31.57
2022-11-13T02:04:37.459Z,31.80
2022-11-13T02:07:08.420Z,32.17
2022-11-13T02:09:37.281Z,33.43
2022-11-13T02:12:07.114Z,31.67
2022-11-13T02:14:35.858Z,32.93
2022-11-13T02:17:05.708Z,37.97
2022-11-13T02:19:35.849Z,32.83
2022-11-13T02:22:08.406Z,30.80
2022-11-13T02:24:43.338Z,34.83
2022-11-13T02:27:16.120Z,31.83
2022-11-13T02:29:44.067Z,36.20
2022-11-13T02:32:11.977Z,32.63
2022-11-13T02:34:39.880Z,31.20
2022-11-13T02:37:07.868Z,34.03
2022-11-13T02:39:37.185Z,32.07
2022-11-13T02:42:05.212Z,33.07
2022-11-13T02:44:33.142Z,30.97
2022-11-13T02:47:01.037Z,32.87
2022-11-13T02:49:29.209Z,34.70
2022-11-13T02:51:57.168Z,33.73
2022-11-13T02:54:25.080Z,27.80
2022-11-13T02:56:54.427Z,33.43
2022-11-13T02:59:22.336Z,32.23
2022-11-13T03:01:50.271Z,33.23
2022-11-13T03:04:18.211Z,29.13
2022-11-13T03:06:46.176Z,29.37
2022-11-13T03:09:14.261Z,28.87
2022-11-13T03:11:42.181Z,28.17
2022-11-13T03:14:11.722Z,35.07
2022-11-13T03:16:39.735Z,28.60
2022-11-13T03:19:08.099Z,33.60
2022-11-13T03:21:36.146Z,30.90
2022-11-13T03:24:04.079Z,27.53
2022-11-13T03:26:31.993Z,31.07
2022-11-13T03:28:59.947Z,25.20
2022-11-13T03:31:29.255Z,29.37
2022-11-13T03:33:57.165Z,25.93
2022-11-13T03:36:25.357Z,27.23
2022-11-13T03:38:53.373Z,24.07
2022-11-13T03:41:22.377Z,22.90
2022-11-13T03:43:50.343Z,20.90
2022-11-13T03:46:18.226Z,22.73
2022-11-13T03:48:47.535Z,25.50
2022-11-13T03:51:15.483Z,19.73
2022-11-13T03:53:43.412Z,21.23
2022-11-13T03:56:11.326Z,17.93
2022-11-13T03:58:40.462Z,20.37
2022-11-13T04:01:08.552Z,24.30
2022-11-13T04:03:36.921Z,27.00
2022-11-13T04:06:06.428Z,20.03
2022-11-13T04:08:34.333Z,24.57
2022-11-13T04:11:07.296Z,19.73
2022-11-13T04:13:35.196Z,19.83
2022-11-13T04:16:03.120Z,19.17
2022-11-13T04:18:31.173Z,20.23
2022-11-13T04:21:00.278Z,22.40
2022-11-13T04:23:29.646Z,22.33
2022-11-13T04:25:57.531Z,23.37
2022-11-13T04:28:25.622Z,21.10
2022-11-13T04:30:54.265Z,18.27
2022-11-13T04:33:22.300Z,22.77
2022-11-13T04:35:50.269Z,23.73
2022-11-13T04:38:18.212Z,22.77
2022-11-13T04:40:50.467Z,19.83
2022-11-13T04:43:17.324Z,19.90
2022-11-13T04:45:45.275Z,21.53
2022-11-13T04:48:13.223Z,20.97
2022-11-13T04:50:41.098Z,20.80
2022-11-13T04:53:09.039Z,21.27
2022-11-13T04:55:36.925Z,21.17
2022-11-13T04:58:06.261Z,17.27
2022-11-13T05:00:34.189Z,23.13
2022-11-13T05:03:02.118Z,18.93
2022-11-13T05:05:30.040Z,20.20
2022-11-13T05:07:57.937Z,19.53
2022-11-13T05:10:25.843Z,18.20
2022-11-13T05:12:57.094Z,20.90
2022-11-13T05:15:26.744Z,20.80
2022-11-13T05:17:55.390Z,21.93
2022-11-13T05:20:23.292Z,17.57
2022-11-13T05:22:51.253Z,22.70
2022-11-13T05:25:19.130Z,18.87
2022-11-13T05:27:47.025Z,23.93
2022-11-13T05:30:14.968Z,19.57
2022-11-13T05:32:44.283Z,19.77
2022-11-13T05:35:12.198Z,18.17
2022-11-13T05:37:40.133Z,18.77
2022-11-13T05:40:08.741Z,18.13
2022-11-13T05:42:36.759Z,17.13
2022-11-13T05:45:04.916Z,18.47
2022-11-13T05:47:34.147Z,19.87
2022-11-13T05:50:03.631Z,17.10
2022-11-13T05:52:31.556Z,19.40
2022-11-13T05:54:59.483Z,20.47
2022-11-13T05:57:27.444Z,17.13
2022-11-13T05:59:55.416Z,18.37
2022-11-13T06:02:23.407Z,19.63
2022-11-13T06:04:54.086Z,19.37
2022-11-13T06:07:25.759Z,18.77
2022-11-13T06:09:53.853Z,17.27
2022-11-13T06:12:21.792Z,28.97
2022-11-13T06:14:49.816Z,18.13
2022-11-13T06:17:17.800Z,17.63
2022-11-13T06:19:45.770Z,24.87
2022-11-13T06:22:13.674Z,17.13
2022-11-13T06:24:43.058Z,19.10
2022-11-13T06:27:11.102Z,16.77
2022-11-13T06:29:38.992Z,19.83
2022-11-13T06:32:07.022Z,18.13
2022-11-13T06:34:34.992Z,15.23
2022-11-13T06:37:02.965Z,20.83
2022-11-13T06:39:30.841Z,18.17
2022-11-13T06:42:00.175Z,16.93
2022-11-13T06:44:28.114Z,15.20
2022-11-13T06:46:56.026Z,16.33
2022-11-13T06:49:23.934Z,17.10
2022-11-13T06:51:51.970Z,17.90
2022-11-13T06:54:19.910Z,17.10
2022-11-13T06:56:48.095Z,17.73
2022-11-13T06:59:17.569Z,16.60
2022-11-13T07:01:45.471Z,16.33
2022-11-13T07:04:13.994Z,16.67
2022-11-13T07:06:42.034Z,17.63
2022-11-13T07:09:10.037Z,15.27
2022-11-13T07:11:37.992Z,18.73
2022-11-13T07:14:06.543Z,16.03
2022-11-13T07:16:56.649Z,19.23
2022-11-13T07:19:23.895Z,17.83
2022-11-13T07:21:51.794Z,13.73
2022-11-13T07:24:19.688Z,19.10
2022-11-13T07:26:47.607Z,16.97
2022-11-13T07:29:15.859Z,15.10
2022-11-13T07:31:45.182Z,19.33
2022-11-13T07:34:14.877Z,17.27
2022-11-13T07:36:42.814Z,14.53
2022-11-13T07:39:10.689Z,14.50
2022-11-13T07:41:38.602Z,15.03
2022-11-13T07:44:09.091Z,15.10
2022-11-13T07:46:37.564Z,14.47
2022-11-13T07:49:06.938Z,15.50
2022-11-13T07:51:34.858Z,16.73
2022-11-13T07:54:02.782Z,17.67
2022-11-13T07:56:30.699Z,13.27
2022-11-13T07:58:58.711Z,15.40
2022-11-13T08:01:27.038Z,16.23
2022-11-13T08:03:55.075Z,17.80
2022-11-13T08:06:24.722Z,15.80
2022-11-13T08:08:52.740Z,16.67
2022-11-13T08:11:21.241Z,14.57
2022-11-13T08:13:49.183Z,15.87
2022-11-13T08:16:17.116Z,16.43
2022-11-13T08:18:45.037Z,16.27
2022-11-13T08:21:15.060Z,15.00
2022-11-13T08:23:44.616Z,14.70
2022-11-13T08:26:12.538Z,18.97
2022-11-13T08:28:40.531Z,18.97
2022-11-13T08:31:11.571Z,17.93
2022-11-13T08:33:39.488Z,19.77
2022-11-13T08:36:07.626Z,18.87
2022-11-13T08:38:35.565Z,16.40
2022-11-13T08:41:08.984Z,16.17
2022-11-13T08:43:37.357Z,18.47
2022-11-13T08:46:05.278Z,17.33
2022-11-13T08:48:33.145Z,19.00
2022-11-13T08:51:01.052Z,16.67
2022-11-13T08:53:29.015Z,18.53
2022-11-13T08:55:56.927Z,19.53
2022-11-13T08:58:26.420Z,24.00
2022-11-13T09:00:54.659Z,17.93
2022-11-13T09:03:22.640Z,20.43
2022-11-13T09:05:50.563Z,15.07
2022-11-13T09:08:18.466Z,17.87
2022-11-13T09:10:46.349Z,20.60
2022-11-13T09:13:14.293Z,20.27
2022-11-13T09:15:43.583Z,18.70
2022-11-13T09:18:11.723Z,20.13
2022-11-13T09:20:39.641Z,20.07
2022-11-13T09:23:08.345Z,20.40
2022-11-13T09:25:38.208Z,21.80
2022-11-13T09:28:06.869Z,18.03
2022-11-13T09:30:35.051Z,23.50
2022-11-13T09:33:05.088Z,20.87
2022-11-13T09:35:36.194Z,22.60
2022-11-13T09:38:11.008Z,22.47
2022-11-13T09:40:43.143Z,25.17
2022-11-13T09:43:15.684Z,23.00
2022-11-13T09:45:43.998Z,23.70
2022-11-13T09:48:21.994Z,22.83
2022-11-13T09:50:50.106Z,24.47
2022-11-13T09:53:18.189Z,22.83
2022-11-13T09:55:50.001Z,21.40
2022-11-13T09:58:20.865Z,23.40
2022-11-13T10:00:49.075Z,25.80
2022-11-13T10:03:54.039Z,22.63
2022-11-13T10:06:17.664Z,25.03
2022-11-13T10:08:51.122Z,23.43
2022-11-13T10:11:23.734Z,20.80
2022-11-13T10:13:53.808Z,19.63
2022-11-13T10:16:26.362Z,20.07
2022-11-13T10:18:57.343Z,19.67
2022-11-13T10:21:31.368Z,20.53
2022-11-13T10:24:03.202Z,20.73
2022-11-13T10:26:31.337Z,20.00
2022-11-13T10:29:02.735Z,18.93
2022-11-13T10:31:30.773Z,18.70
2022-11-13T10:34:00.587Z,22.07
2022-11-13T10:36:34.100Z,21.53
2022-11-13T10:39:03.780Z,19.60
2022-11-13T10:41:31.938Z,19.23
2022-11-13T10:43:59.994Z,18.17
2022-11-13T10:46:30.130Z,19.17
2022-11-13T10:48:59.531Z,22.67
2022-11-13T10:51:28.631Z,20.67
2022-11-13T10:53:56.788Z,20.13
2022-11-13T10:56:28.023Z,19.60
2022-11-13T10:59:05.797Z,18.93
2022-11-13T11:01:33.753Z,20.57
2022-11-13T11:04:04.428Z,15.60
2022-11-13T11:07:04.600Z,16.00
2022-11-13T11:09:23.944Z,19.93
2022-11-13T11:12:30.213Z,17.30
2022-11-13T11:15:11.162Z,17.27
2022-11-13T11:17:42.756Z,18.10
2022-11-13T11:20:18.514Z,19.17
2022-11-13T11:22:47.684Z,20.10
2022-11-13T11:25:17.175Z,19.07
2022-11-13T11:27:47.975Z,17.93
2022-11-13T11:30:19.878Z,17.47
2022-11-13T11:32:49.920Z,16.73
2022-11-13T11:35:21.996Z,19.97
2022-11-13T11:37:54.111Z,20.17
2022-11-13T11:40:26.864Z,20.30
2022-11-13T11:42:57.947Z,19.93
2022-11-13T11:45:27.706Z,21.40
2022-11-13T11:47:55.599Z,19.43
2022-11-13T11:50:30.801Z,20.20
2022-11-13T11:53:02.169Z,20.77
2022-11-13T11:55:38.480Z,19.17
2022-11-13T11:58:11.834Z,20.63
2022-11-13T12:00:42.387Z,20.87
2022-11-13T12:03:39.085Z,23.13
2022-11-13T12:06:12.489Z,20.07
2022-11-13T12:08:42.553Z,21.20
2022-11-13T12:11:15.575Z,22.20
2022-11-13T12:13:46.635Z,18.37
2022-11-13T12:16:22.302Z,24.97
2022-11-13T12:18:56.484Z,20.83
2022-11-13T12:21:29.306Z,19.00
2022-11-13T12:24:30.206Z,23.17
2022-11-13T12:27:16.219Z,20.67
2022-11-13T12:29:52.885Z,20.33
2022-11-13T12:32:26.453Z,18.70
2022-11-13T12:34:57.393Z,19.67
2022-11-13T12:37:29.650Z,20.53
2022-11-13T12:39:58.441Z,19.17
2022-11-13T12:42:30.998Z,20.50
2022-11-13T12:45:02.445Z,20.57
2022-11-13T12:47:33.450Z,22.53
2022-11-13T12:50:02.470Z,22.20
2022-11-13T12:52:34.768Z,19.50
2022-11-13T12:55:07.852Z,20.90
2022-11-13T12:57:35.959Z,23.67
2022-11-13T13:00:21.976Z,18.90
2022-11-13T13:02:54.104Z,21.10
2022-11-13T13:05:25.310Z,19.03
2022-11-13T13:08:05.173Z,20.40
2022-11-13T13:10:35.498Z,19.90
2022-11-13T13:13:09.827Z,21.23
2022-11-13T13:15:38.527Z,22.17
2022-11-13T13:18:08.424Z,19.47
2022-11-13T13:20:37.559Z,22.10
2022-11-13T13:23:08.815Z,21.37
2022-11-13T13:25:37.455Z,23.60
2022-11-13T13:28:19.723Z,19.37
2022-11-13T13:30:51.505Z,22.17
2022-11-13T13:33:23.364Z,20.57
2022-11-13T13:35:56.144Z,22.53
2022-11-13T13:38:27.907Z,22.60
2022-11-13T13:41:04.553Z,17.47
2022-11-13T13:43:38.757Z,21.93
2022-11-13T13:46:11.462Z,22.80
2022-11-13T13:48:40.794Z,20.43
2022-11-13T13:51:16.208Z,19.40
2022-11-13T13:53:45.625Z,18.20
2022-11-13T13:56:14.881Z,19.47
2022-11-13T13:58:43.198Z,20.40
2022-11-13T14:01:19.243Z,21.73
2022-11-13T14:03:47.819Z,19.93
2022-11-13T14:06:20.983Z,20.37
2022-11-13T14:08:50.330Z,19.73
2022-11-13T14:11:19.727Z,16.07
2022-11-13T14:13:47.629Z,21.47
2022-11-13T14:16:15.659Z,18.83
2022-11-13T14:18:43.597Z,21.27
2022-11-13T14:21:13.298Z,23.53
2022-11-13T14:23:43.428Z,20.33
2022-11-13T14:26:12.951Z,22.10
2022-11-13T14:28:53.790Z,23.57
2022-11-13T14:31:26.720Z,23.67
2022-11-13T14:33:54.769Z,21.60
2022-11-13T14:36:27.292Z,23.30
2022-11-13T14:38:55.463Z,21.80
2022-11-13T14:41:25.736Z,23.83
2022-11-13T14:43:54.435Z,23.00
2022-11-13T14:46:33.144Z,22.50
2022-11-13T14:49:01.034Z,19.93
2022-11-13T14:51:30.488Z,19.87
2022-11-13T14:53:59.264Z,19.67
2022-11-13T14:56:35.589Z,23.33
2022-11-13T14:59:11.672Z,21.33
2022-11-13T15:01:42.353Z,23.67
2022-11-13T15:04:10.430Z,21.53
2022-11-13T15:06:39.341Z,21.17
2022-11-13T15:09:10.534Z,20.90
2022-11-13T15:11:40.556Z,21.83
2022-11-13T15:14:11.177Z,23.60
2022-11-13T15:16:39.360Z,20.50
2022-11-13T15:19:09.045Z,21.57
2022-11-13T15:21:37.078Z,18.97
2022-11-13T15:24:05.205Z,20.70
2022-11-13T15:26:33.147Z,18.23
2022-11-13T15:29:02.534Z,22.30
2022-11-13T15:31:31.446Z,20.00
2022-11-13T15:33:59.588Z,20.50
2022-11-13T15:36:27.549Z,20.80
2022-11-13T15:38:55.509Z,17.93
2022-11-13T15:41:24.525Z,22.30
2022-11-13T15:43:53.590Z,20.40
2022-11-13T15:46:24.126Z,21.93
2022-11-13T15:48:52.425Z,19.97
2022-11-13T15:51:21.963Z,16.97
2022-11-13T15:53:51.760Z,18.57
2022-11-13T15:56:19.954Z,21.83
2022-11-13T15:58:47.875Z,27.73
2022-11-13T16:01:16.437Z,24.40
2022-11-13T16:03:45.907Z,26.30
2022-11-13T16:06:14.661Z,21.57
2022-11-13T16:08:42.800Z,20.67
2022-11-13T16:11:14.450Z,19.20
2022-11-13T16:13:42.377Z,18.97
2022-11-13T16:16:11.123Z,20.67
2022-11-13T16:18:39.129Z,19.73
2022-11-13T16:21:10.049Z,20.90
2022-11-13T16:23:37.951Z,18.30
2022-11-13T16:26:05.984Z,24.77
2022-11-13T16:28:37.570Z,24.70
2022-11-13T16:31:21.211Z,22.10
2022-11-13T16:33:49.235Z,20.27
2022-11-13T16:36:19.338Z,19.93
2022-11-13T16:38:47.564Z,21.47
2022-11-13T16:41:16.684Z,22.87
2022-11-13T16:43:44.764Z,18.63
2022-11-13T16:46:19.113Z,20.40
2022-11-13T16:48:47.106Z,19.43
2022-11-13T16:51:16.751Z,23.57
2022-11-13T16:53:46.171Z,19.83
2022-11-13T16:56:15.381Z,19.97
2022-11-13T16:58:43.787Z,21.87
2022-11-13T17:01:18.250Z,19.57
2022-11-13T17:03:46.644Z,22.63
2022-11-13T17:06:20.505Z,22.27
2022-11-13T17:08:51.694Z,21.70
2022-11-13T17:11:20.098Z,22.53
2022-11-13T17:13:50.311Z,20.10
2022-11-13T17:16:18.239Z,23.20
2022-11-13T17:18:48.395Z,22.13
2022-11-13T17:21:16.755Z,24.53
2022-11-13T17:23:45.144Z,25.07
2022-11-13T17:26:14.514Z,22.97
2022-11-13T17:28:42.585Z,23.67
2022-11-13T17:31:12.774Z,23.30
2022-11-13T17:33:41.290Z,22.13
2022-11-13T17:36:09.944Z,22.57
2022-11-13T17:38:39.154Z,25.00
2022-11-13T17:41:08.002Z,23.23
2022-11-13T17:43:37.852Z,21.90
2022-11-13T17:46:05.943Z,23.40
2022-11-13T17:48:34.312Z,25.80
2022-11-13T17:51:03.730Z,26.60
2022-11-13T17:53:32.319Z,22.00
2022-11-13T17:56:00.912Z,25.73
2022-11-13T17:58:29.302Z,24.73
2022-11-13T18:01:06.185Z,25.13
2022-11-13T18:03:34.147Z,28.73
2022-11-13T18:06:05.111Z,27.40
2022-11-13T18:08:33.317Z,28.90
2022-11-13T18:11:01.535Z,31.23
2022-11-13T18:13:29.693Z,25.50
2022-11-13T18:16:04.345Z,24.63
2022-11-13T18:18:33.777Z,27.80
2022-11-13T18:21:13.928Z,23.67
2022-11-13T18:23:50.344Z,26.47
2022-11-13T18:26:19.058Z,29.53
2022-11-13T18:28:47.036Z,25.57
2022-11-13T18:31:16.015Z,26.87
2022-11-13T18:33:45.824Z,27.83
2022-11-13T18:36:13.725Z,30.20
2022-11-13T18:38:41.791Z,26.67
2022-11-13T18:41:11.217Z,26.17
2022-11-13T18:43:39.140Z,26.30
2022-11-13T18:46:07.931Z,27.83
2022-11-13T18:48:36.762Z,26.93
2022-11-13T18:51:07.373Z,29.43
2022-11-13T18:53:35.328Z,28.20
2022-11-13T18:56:03.824Z,30.70
2022-11-13T18:58:31.782Z,29.70
2022-11-13T19:01:08.976Z,36.73
2022-11-13T19:03:36.987Z,28.00
2022-11-13T19:06:08.035Z,27.03
2022-11-13T19:08:40.541Z,26.13
2022-11-13T19:11:10.716Z,28.47
2022-11-13T19:13:39.102Z,25.10
2022-11-13T19:16:07.521Z,30.90
2022-11-13T19:18:35.793Z,24.47
2022-11-13T19:21:08.967Z,28.57
2022-11-13T19:23:36.933Z,29.60
2022-11-13T19:26:05.454Z,25.13
2022-11-13T19:28:33.381Z,25.43
2022-11-13T19:31:01.320Z,27.57
2022-11-13T19:33:29.616Z,26.70
2022-11-13T19:35:57.510Z,25.47
2022-11-13T19:38:27.924Z,26.80
2022-11-13T19:40:56.106Z,27.87
2022-11-13T19:43:24.055Z,32.00
2022-11-13T19:45:51.952Z,27.27
2022-11-13T19:48:19.880Z,28.50
2022-11-13T19:50:47.784Z,23.17
2022-11-13T19:53:15.907Z,22.90
2022-11-13T19:55:54.426Z,21.90
2022-11-13T19:58:22.386Z,20.47
2022-11-13T20:00:50.327Z,23.10
2022-11-13T20:03:18.214Z,19.10
2022-11-13T20:05:46.370Z,18.83
2022-11-13T20:08:14.963Z,18.33
2022-11-13T20:10:42.856Z,15.97
2022-11-13T20:13:12.209Z,15.80
2022-11-13T20:15:40.169Z,15.57
2022-11-13T20:18:11.053Z,13.90
2022-11-13T20:20:38.945Z,14.07
2022-11-13T20:23:06.923Z,12.00
2022-11-13T20:25:34.829Z,13.90
2022-11-13T20:28:02.733Z,13.17
2022-11-13T20:30:32.191Z,11.30
2022-11-13T20:33:00.087Z,12.37
2022-11-13T20:35:27.970Z,10.40
2022-11-13T20:37:56.256Z,8.47
2022-11-13T20:40:24.153Z,9.13
2022-11-13T20:42:52.060Z,11.87
2022-11-13T20:45:20.005Z,7.40
2022-11-13T20:47:49.291Z,9.77
2022-11-13T20:50:17.367Z,8.57
2022-11-13T20:52:45.274Z,7.17
2022-11-13T20:55:13.178Z,6.73
2022-11-13T20:57:41.344Z,10.07
2022-11-13T21:00:10.837Z,9.50
2022-11-13T21:02:38.836Z,13.23
2022-11-13T21:05:08.937Z,8.37
2022-11-13T21:07:36.827Z,11.30
2022-11-13T21:10:05.067Z,12.93
2022-11-13T21:12:33.234Z,14.77
2022-11-13T21:15:01.159Z,11.00
2022-11-13T21:17:29.124Z,9.80
2022-11-13T21:19:57.894Z,13.70
2022-11-13T21:22:27.383Z,10.43
2022-11-13T21:24:55.307Z,9.67
2022-11-13T21:27:23.261Z,8.77
2022-11-13T21:29:51.173Z,9.70
2022-11-13T21:32:19.802Z,11.00
2022-11-13T21:34:47.817Z,8.13
2022-11-13T21:37:16.124Z,8.17
2022-11-13T21:39:45.431Z,4.17
2022-11-13T21:42:13.372Z,5.60
2022-11-13T21:44:41.266Z,9.27
2022-11-13T21:47:11.040Z,5.67
2022-11-13T21:49:39.054Z,5.03
2022-11-13T21:52:06.953Z,6.93
2022-11-13T21:54:34.833Z,5.77
2022-11-13T21:57:04.251Z,4.20
2022-11-13T21:59:32.194Z,6.70
2022-11-13T22:02:00.441Z,5.43
2022-11-13T22:04:28.419Z,3.60
2022-11-13T22:06:56.344Z,6.47
2022-11-13T22:09:25.329Z,7.70
2022-11-13T22:11:53.522Z,5.03
2022-11-13T22:14:22.859Z,5.00
2022-11-13T22:16:50.806Z,9.80
2022-11-13T22:19:23.960Z,3.50
2022-11-13T22:21:54.647Z,4.37
2022-11-13T22:24:22.537Z,4.87
2022-11-13T22:26:50.429Z,5.17
2022-11-13T22:29:18.615Z,10.20
2022-11-13T22:31:48.230Z,7.40
2022-11-13T22:34:16.167Z,3.97
2022-11-13T22:36:44.109Z,8.37
2022-11-13T22:39:12.138Z,8.60
2022-11-13T22:41:40.046Z,7.30
2022-11-13T22:44:09.307Z,6.87
2022-11-13T22:46:37.485Z,7.70
2022-11-13T22:49:07.091Z,7.00
2022-11-13T22:51:38.132Z,6.87
2022-11-13T22:54:07.430Z,6.00
2022-11-13T22:56:36.005Z,9.33
2022-11-13T22:59:05.273Z,7.83
2022-11-13T23:01:34.810Z,6.83
2022-11-13T23:04:03.793Z,5.80
2022-11-13T23:06:33.674Z,4.57
2022-11-13T23:09:04.618Z,8.13
2022-11-13T23:11:33.746Z,7.23
2022-11-13T23:14:02.307Z,4.67
2022-11-13T23:16:30.961Z,8.07
2022-11-13T23:18:59.631Z,4.90
2022-11-13T23:21:27.763Z,5.77
2022-11-13T23:23:57.497Z,8.77
2022-11-13T23:26:25.777Z,3.70
2022-11-13T23:28:54.122Z,7.43
2022-11-13T23:31:22.328Z,5.80
2022-11-13T23:33:50.478Z,4.70
2022-11-13T23:36:19.224Z,8.93
2022-11-13T23:38:47.181Z,4.70
2022-11-13T23:41:16.497Z,9.23
2022-11-13T23:46:32.331Z,7.50
2022-11-13T23:49:00.225Z,6.43
2022-11-13T23:51:28.104Z,5.00
2022-11-13T23:53:56.095Z,6.43
2022-11-13T23:56:25.471Z,8.60
2022-11-13T23:58:53.372Z,4.87
